Map

Track Data

SID SEASON NUMBER BASIN SUBBASIN NAME ISO_TIME NATURE LAT LON WMO_WIND WMO_PRES WMO_AGENCY TRACK_TYPE DIST2LAND LANDFALL IFLAG USA_AGENCY USA_ATCF_ID USA_LAT USA_LON USA_RECORD USA_STATUS USA_WIND USA_PRES USA_SSHS USA_R34_NE USA_R34_SE USA_R34_SW USA_R34_NW USA_R50_NE USA_R50_SE USA_R50_SW USA_R50_NW USA_R64_NE USA_R64_SE USA_R64_SW USA_R64_NW USA_POCI USA_ROCI USA_RMW USA_EYE TOKYO_LAT TOKYO_LON TOKYO_GRADE TOKYO_WIND TOKYO_PRES TOKYO_R50_DIR TOKYO_R50_LONG TOKYO_R50_SHORT TOKYO_R30_DIR TOKYO_R30_LONG TOKYO_R30_SHORT TOKYO_LAND CMA_LAT CMA_LON CMA_CAT CMA_WIND CMA_PRES HKO_LAT HKO_LON HKO_CAT HKO_WIND HKO_PRES NEWDELHI_LAT NEWDELHI_LON NEWDELHI_GRADE NEWDELHI_WIND NEWDELHI_PRES NEWDELHI_CI NEWDELHI_DP NEWDELHI_POCI REUNION_LAT REUNION_LON REUNION_TYPE REUNION_WIND REUNION_PRES REUNION_TNUM REUNION_CI REUNION_RMW REUNION_R34_NE REUNION_R34_SE REUNION_R34_SW REUNION_R34_NW REUNION_R50_NE REUNION_R50_SE REUNION_R50_SW REUNION_R50_NW REUNION_R64_NE REUNION_R64_SE REUNION_R64_SW REUNION_R64_NW BOM_LAT BOM_LON BOM_TYPE BOM_WIND BOM_PRES BOM_TNUM BOM_CI BOM_RMW BOM_R34_NE BOM_R34_SE BOM_R34_SW BOM_R34_NW BOM_R50_NE BOM_R50_SE BOM_R50_SW BOM_R50_NW BOM_R64_NE BOM_R64_SE BOM_R64_SW BOM_R64_NW BOM_ROCI BOM_POCI BOM_EYE BOM_POS_METHOD BOM_PRES_METHOD NADI_LAT NADI_LON NADI_CAT NADI_WIND NADI_PRES WELLINGTON_LAT WELLINGTON_LON WELLINGTON_WIND WELLINGTON_PRES DS824_LAT DS824_LON DS824_STAGE DS824_WIND DS824_PRES TD9636_LAT TD9636_LON TD9636_STAGE TD9636_WIND TD9636_PRES TD9635_LAT TD9635_LON TD9635_WIND TD9635_PRES TD9635_ROCI NEUMANN_LAT NEUMANN_LON NEUMANN_CLASS NEUMANN_WIND NEUMANN_PRES MLC_LAT MLC_LON MLC_CLASS MLC_WIND MLC_PRES USA_GUST BOM_GUST BOM_GUST_PER REUNION_GUST REUNION_GUST_PER USA_SEAHGT USA_SEARAD_NE USA_SEARAD_SE USA_SEARAD_SW USA_SEARAD_NW STORM_SPEED STORM_DIR
1975183N11259 1975 51 EP MM CARLOTTA 1975-07-02 06:00:00 NR 10.8000 -101.000 main 668 668 __________O___ -1 10.8000 -101.000 1 25 16 281
1975183N11259 1975 51 EP MM CARLOTTA 1975-07-02 09:00:00 NR 10.9447 -101.791 main 687 677 __________P___ -1 10.9447 -101.791 1 25 15 282
1975183N11259 1975 51 EP MM CARLOTTA 1975-07-02 12:00:00 TS 11.1000 -102.500 25 hurdat_epa main 696 695 O________OO___ hurdat_epa EP031975 11.1000 -102.500 TD 25 -1 11.1000 -102.500 TC 25 11.1000 -102.500 1 25 12 286
1975183N11259 1975 51 EP MM CARLOTTA 1975-07-02 15:00:00 TS 11.2921 -102.989 main 701 694 P________PP___ EP031975 11.3001 -102.950 TD 30 -1 11.3001 -102.950 TC 30 11.2762 -103.068 1 28 10 293
1975183N11259 1975 51 EP MM CARLOTTA 1975-07-02 18:00:00 TS 11.4929 -103.431 35 hurdat_epa main 694 691 O________OP___ hurdat_epa EP031975 11.5000 -103.400 TS 35 0 11.5000 -103.400 TC 35 11.4716 -103.523 1 32 9 295
1975183N11259 1975 51 EP MM CARLOTTA 1975-07-02 21:00:00 TS 11.6962 -103.863 main 695 690 P________PP___ EP031975 11.6999 -103.850 TS 37 0 11.6999 -103.850 TC 37 11.6813 -103.917 1 36 9 296
1975183N11259 1975 51 EP MM CARLOTTA 1975-07-03 00:00:00 TS 11.9000 -104.300 40 hurdat_epa main 695 691 O________OO___ hurdat_epa EP031975 11.9000 -104.300 TS 40 0 11.9000 -104.300 TC 40 11.9000 -104.300 2 40 10 295
1975183N11259 1975 51 EP MM CARLOTTA 1975-07-03 03:00:00 TS 12.0983 -104.753 main 701 690 P________PP___ EP031975 12.0924 -104.750 TS 42 0 12.0924 -104.750 TC 42 12.1218 -104.762 2 41 10 295
1975183N11259 1975 51 EP MM CARLOTTA 1975-07-03 06:00:00 TS 12.3100 -105.205 45 hurdat_epa main 694 683 O________OP___ hurdat_epa EP031975 12.3000 -105.200 TS 45 0 12.3000 -105.200 TC 45 12.3499 -105.223 2 42 10 297
1975183N11259 1975 51 EP MM CARLOTTA 1975-07-03 09:00:00 TS 12.5556 -105.666 main 680 671 P________PP___ EP031975 12.5500 -105.665 TS 45 0 12.5500 -105.665 TC 45 12.5781 -105.672 2 43 10 299
1975183N11259 1975 51 EP MM CARLOTTA 1975-07-03 12:00:00 TS 12.8000 -106.100 45 hurdat_epa main 675 669 O________OO___ hurdat_epa EP031975 12.8000 -106.100 TS 45 0 12.8000 -106.100 TC 45 12.8000 -106.100 2 45 9 300
1975183N11259 1975 51 EP MM CARLOTTA 1975-07-03 15:00:00 TS 13.0048 -106.460 main 674 665 P________PP___ EP031975 13.0074 -106.458 TS 55 0 13.0074 -106.458 TC 55 12.9944 -106.469 2 51 8 300
1975183N11259 1975 51 EP MM CARLOTTA 1975-07-03 18:00:00 TS 13.1968 -106.804 65 hurdat_epa main 671 667 O________OP___ hurdat_epa EP031975 13.2000 -106.800 HU 65 1 13.2000 -106.800 TC 65 13.1840 -106.821 2 57 8 299
1975183N11259 1975 51 EP MM CARLOTTA 1975-07-03 21:00:00 TS 13.3842 -107.174 main 676 673 P________PP___ EP031975 13.3849 -107.170 HU 67 1 13.3849 -107.170 TC 67 13.3818 -107.188 2 63 9 298
1975183N11259 1975 51 EP MM CARLOTTA 1975-07-04 00:00:00 TS 13.6000 -107.600 70 hurdat_epa main 684 683 O________OO___ hurdat_epa EP031975 13.6000 -107.600 HU 70 1 13.6000 -107.600 TC 70 13.6000 -107.600 4 70 11 298
1975183N11259 1975 51 EP MM CARLOTTA 1975-07-04 03:00:00 TS 13.8848 -108.124 main 689 685 P________PP___ EP031975 13.8925 -108.127 HU 72 1 13.8925 -108.127 TC 72 13.8537 -108.112 4 73 12 299
1975183N11259 1975 51 EP MM CARLOTTA 1975-07-04 06:00:00 TS 14.1856 -108.694 75 hurdat_epa main 696 696 O________OP___ hurdat_epa EP031975 14.2000 -108.700 HU 75 1 14.2000 -108.700 TC 75 14.1279 -108.670 4 77 12 297
1975183N11259 1975 51 EP MM CARLOTTA 1975-07-04 09:00:00 TS 14.4426 -109.255 main 719 711 P________PP___ EP031975 14.4499 -109.258 HU 80 1 14.4499 -109.258 TC 80 14.4131 -109.243 4 81 12 296
1975183N11259 1975 51 EP MM CARLOTTA 1975-07-04 12:00:00 TS 14.7000 -109.800 85 hurdat_epa main 732 732 O________OO___ hurdat_epa EP031975 14.7000 -109.800 HU 85 2 14.7000 -109.800 TC 85 14.7000 -109.800 4 85 12 298
1975183N11259 1975 51 EP MM CARLOTTA 1975-07-04 15:00:00 TS 14.9964 -110.312 main 747 746 P________PP___ EP031975 14.9999 -110.315 HU 87 2 14.9999 -110.315 TC 87 14.9826 -110.301 4 88 11 302
1975183N11259 1975 51 EP MM CARLOTTA 1975-07-04 18:00:00 TS 15.2929 -110.796 90 hurdat_epa main 763 763 O________OP___ hurdat_epa EP031975 15.3000 -110.800 HU 90 2 15.3000 -110.800 TC 90 15.2644 -110.780 4 92 11 302
1975183N11259 1975 51 EP MM CARLOTTA 1975-07-04 21:00:00 TS 15.5537 -111.255 main 783 783 P________PP___ EP031975 15.5574 -111.258 HU 95 2 15.5574 -111.258 TC 95 15.5389 -111.245 4 96 10 300
1975183N11259 1975 51 EP MM CARLOTTA 1975-07-05 00:00:00 TS 15.8000 -111.700 100 hurdat_epa main 806 799 O________OO___ hurdat_epa EP031975 15.8000 -111.700 HU 100 3 15.8000 -111.700 TC 100 15.8000 -111.700 4 100 10 300
1975183N11259 1975 51 EP MM CARLOTTA 1975-07-05 03:00:00 TS 16.0562 -112.152 main 794 783 P________PP___ EP031975 16.0574 -112.150 HU 102 3 16.0574 -112.150 TC 102 16.0512 -112.157 4 102 10 300
1975183N11259 1975 51 EP MM CARLOTTA 1975-07-05 06:00:00 TS 16.2974 -112.602 105 hurdat_epa main 786 777 O________OP___ hurdat_epa EP031975 16.3000 -112.600 HU 105 3 16.3000 -112.600 TC 105 16.2870 -112.608 4 105 10 298
1975183N11259 1975 51 EP MM CARLOTTA 1975-07-05 09:00:00 TS 16.5068 -113.051 main 785 779 P________PP___ EP031975 16.5074 -113.050 HU 107 3 16.5074 -113.050 TC 107 16.5043 -113.054 4 107 10 295
1975183N11259 1975 51 EP MM CARLOTTA 1975-07-05 12:00:00 TS 16.7000 -113.500 110 hurdat_epa main 784 779 O________OO___ hurdat_epa EP031975 16.7000 -113.500 HU 110 3 16.7000 -113.500 TC 110 16.7000 -113.500 4 110 10 295
1975183N11259 1975 51 EP MM CARLOTTA 1975-07-05 15:00:00 TS 16.9102 -113.949 main 785 781 P________PP___ EP031975 16.9149 -113.950 HU 110 3 16.9149 -113.950 TC 110 16.8915 -113.946 4 110 9 295
1975183N11259 1975 51 EP MM CARLOTTA 1975-07-05 18:00:00 TS 17.0919 -114.399 110 hurdat_epa main 794 794 O________OP___ hurdat_epa EP031975 17.1000 -114.400 HU 110 3 17.1000 -114.400 TC 110 17.0595 -114.393 4 110 9 290
1975183N11259 1975 51 EP MM CARLOTTA 1975-07-05 21:00:00 TS 17.2174 -114.843 main 810 810 P________PP___ EP031975 17.2223 -114.843 HU 110 3 17.2223 -114.843 TC 110 17.1977 -114.843 4 110 9 284
1975183N11259 1975 51 EP MM CARLOTTA 1975-07-06 00:00:00 TS 17.3000 -115.300 110 hurdat_epa main 835 835 O________OO___ hurdat_epa EP031975 17.3000 -115.300 HU 110 3 17.3000 -115.300 TC 110 17.3000 -115.300 4 110 9 279
1975183N11259 1975 51 EP MM CARLOTTA 1975-07-06 03:00:00 TS 17.3650 -115.798 main 862 862 P________PP___ EP031975 17.3650 -115.800 HU 110 3 17.3650 -115.800 TC 110 17.3651 -115.788 4 107 10 276
1975183N11259 1975 51 EP MM CARLOTTA 1975-07-06 06:00:00 TS 17.3990 -116.296 110 hurdat_epa main 900 900 O________OP___ hurdat_epa EP031975 17.4000 -116.300 HU 110 3 17.4000 -116.300 TC 110 17.3951 -116.280 4 105 9 273
1975183N11259 1975 51 EP MM CARLOTTA 1975-07-06 09:00:00 TS 17.4065 -116.769 main 938 938 P________PP___ EP031975 17.4074 -116.773 HU 110 3 17.4074 -116.773 TC 110 17.4026 -116.757 4 102 9 270
1975183N11259 1975 51 EP MM CARLOTTA 1975-07-06 12:00:00 TS 17.4000 -117.200 110 hurdat_epa main 970 970 O________OO___ hurdat_epa EP031975 17.4000 -117.200 HU 110 3 17.4000 -117.200 TC 110 17.4000 -117.200 4 100 8 270
1975183N11259 1975 51 EP MM CARLOTTA 1975-07-06 15:00:00 TS 17.4012 -117.568 main 995 995 P________PP___ EP031975 17.3999 -117.565 HU 105 3 17.3999 -117.565 TC 105 17.4065 -117.578 4 98 7 270
1975183N11259 1975 51 EP MM CARLOTTA 1975-07-06 18:00:00 TS 17.4013 -117.905 100 hurdat_epa main 1013 1013 O________OP___ hurdat_epa EP031975 17.4000 -117.900 HU 100 3 17.4000 -117.900 TC 100 17.4067 -117.923 4 97 6 270
1975183N11259 1975 51 EP MM CARLOTTA 1975-07-06 21:00:00 TS 17.4006 -118.245 main 1032 1032 P________PP___ EP031975 17.3999 -118.243 HU 97 3 17.3999 -118.243 TC 97 17.4035 -118.256 4 96 7 270
1975183N11259 1975 51 EP MM CARLOTTA 1975-07-07 00:00:00 TS 17.4000 -118.600 95 hurdat_epa main 1058 1058 O________OO___ hurdat_epa EP031975 17.4000 -118.600 HU 95 2 17.4000 -118.600 TC 95 17.4000 -118.600 4 95 7 270
1975183N11259 1975 51 EP MM CARLOTTA 1975-07-07 03:00:00 TS 17.4000 -118.995 main 1085 1085 P________PP___ EP031975 17.4000 -118.993 HU 92 2 17.4000 -118.993 TC 92 17.4002 -119.006 4 90 8 270
1975183N11259 1975 51 EP MM CARLOTTA 1975-07-07 06:00:00 TS 17.4001 -119.405 90 hurdat_epa main 1113 1113 O________OP___ hurdat_epa EP031975 17.4000 -119.400 HU 90 2 17.4000 -119.400 TC 90 17.4003 -119.422 4 85 8 270
1975183N11259 1975 51 EP MM CARLOTTA 1975-07-07 09:00:00 TS 17.4001 -119.824 main 1141 1141 P________PP___ EP031975 17.4000 -119.823 HU 82 1 17.4000 -119.823 TC 82 17.4002 -119.828 4 80 8 270
1975183N11259 1975 51 EP MM CARLOTTA 1975-07-07 12:00:00 TS 17.4000 -120.200 75 hurdat_epa main 1170 1170 O________OO___ hurdat_epa EP031975 17.4000 -120.200 HU 75 1 17.4000 -120.200 TC 75 17.4000 -120.200 4 75 6 270
1975183N11259 1975 51 EP MM CARLOTTA 1975-07-07 15:00:00 TS 17.3989 -120.471 main 1193 1193 P________PP___ EP031975 17.3998 -120.465 HU 70 1 17.3998 -120.465 TC 70 17.3954 -120.495 4 71 5 270
1975183N11259 1975 51 EP MM CARLOTTA 1975-07-07 18:00:00 TS 17.3983 -120.712 65 hurdat_epa main 1208 1208 O________OP___ hurdat_epa EP031975 17.4000 -120.700 HU 65 1 17.4000 -120.700 TC 65 17.3917 -120.758 4 67 5 270
1975183N11259 1975 51 EP MM CARLOTTA 1975-07-07 21:00:00 TS 17.3984 -120.991 main 1231 1231 P________PP___ EP031975 17.4000 -120.985 HU 62 0 17.4000 -120.985 TC 62 17.3923 -121.017 4 63 6 270
1975183N11259 1975 51 EP MM CARLOTTA 1975-07-08 00:00:00 TS 17.4000 -121.300 60 hurdat_epa main 1254 1254 O________OO___ hurdat_epa EP031975 17.4000 -121.300 TS 60 0 17.4000 -121.300 TC 60 17.4000 -121.300 2 60 6 270
1975183N11259 1975 51 EP MM CARLOTTA 1975-07-08 03:00:00 TS 17.3983 -121.638 main 1277 1277 P________PP___ EP031975 17.3924 -121.635 TS 55 0 17.3924 -121.635 TC 55 17.4220 -121.650 2 56 7 271
1975183N11259 1975 51 EP MM CARLOTTA 1975-07-08 06:00:00 TS 17.4100 -122.005 50 hurdat_epa main 1309 1309 O________OP___ hurdat_epa EP031975 17.4000 -122.000 TS 50 0 17.4000 -122.000 TC 50 17.4501 -122.027 2 52 7 274
1975183N11259 1975 51 EP MM CARLOTTA 1975-07-08 09:00:00 TS 17.4556 -122.403 main 1334 1334 P________PP___ EP031975 17.4500 -122.400 TS 47 0 17.4500 -122.400 TC 47 17.4782 -122.416 2 48 8 277
1975183N11259 1975 51 EP MM CARLOTTA 1975-07-08 12:00:00 TS 17.5000 -122.800 45 hurdat_epa main 1367 1367 O________OO___ hurdat_epa EP031975 17.5000 -122.800 TS 45 0 17.5000 -122.800 TC 45 17.5000 -122.800 2 45 7 274
1975183N11259 1975 51 EP MM CARLOTTA 1975-07-08 15:00:00 TS 17.5040 -123.154 main 1401 1401 P________PP___ EP031975 17.5074 -123.158 TS 45 0 17.5074 -123.158 TC 45 17.4905 -123.141 2 43 7 270
1975183N11259 1975 51 EP MM CARLOTTA 1975-07-08 18:00:00 TS 17.4954 -123.496 45 hurdat_epa main 1426 1426 O________OP___ hurdat_epa EP031975 17.5000 -123.500 TS 45 0 17.5000 -123.500 TC 45 17.4768 -123.478 2 42 6 269
1975183N11259 1975 51 EP MM CARLOTTA 1975-07-08 21:00:00 TS 17.4888 -123.833 main 1451 1451 P________PP___ EP031975 17.4924 -123.835 TS 42 0 17.4924 -123.835 TC 42 17.4748 -123.826 2 41 7 270
1975183N11259 1975 51 EP MM CARLOTTA 1975-07-09 00:00:00 TS 17.5000 -124.200 40 hurdat_epa main 1478 1478 O________OO___ hurdat_epa EP031975 17.5000 -124.200 TS 40 0 17.5000 -124.200 TC 40 17.5000 -124.200 2 40 8 273
1975183N11259 1975 51 EP MM CARLOTTA 1975-07-09 03:00:00 TS 17.5355 -124.636 main 1505 1505 P________PP___ EP031975 17.5275 -124.635 TS 40 0 17.5275 -124.635 TC 40 17.5675 -124.641 2 38 9 277
1975183N11259 1975 51 EP MM CARLOTTA 1975-07-09 06:00:00 TS 17.6126 -125.101 40 hurdat_epa main 1530 1530 O________OP___ hurdat_epa EP031975 17.6000 -125.100 TS 40 0 17.6000 -125.100 TC 40 17.6629 -125.107 2 37 9 283
1975183N11259 1975 51 EP MM CARLOTTA 1975-07-09 09:00:00 TS 17.7434 -125.572 main 1557 1549 P________PP___ EP031975 17.7350 -125.572 TS 37 0 17.7350 -125.572 TC 37 17.7769 -125.570 2 36 9 289
1975183N11259 1975 51 EP MM CARLOTTA 1975-07-09 12:00:00 TS 17.9000 -126.000 35 hurdat_epa main 1570 1569 O________OO___ hurdat_epa EP031975 17.9000 -126.000 TS 35 0 17.9000 -126.000 TC 35 17.9000 -126.000 2 35 8 293
1975183N11259 1975 51 EP MM CARLOTTA 1975-07-09 15:00:00 TS 18.0501 -126.321 main 1576 1576 P________PP___ EP031975 18.0573 -126.315 TS 35 0 18.0573 -126.315 TC 35 18.0212 -126.345 2 33 7 296
1975183N11259 1975 51 EP MM CARLOTTA 1975-07-09 18:00:00 TS 18.1898 -126.612 35 hurdat_epa main 1591 1591 O________OP___ hurdat_epa EP031975 18.2000 -126.600 TS 35 0 18.2000 -126.600 TC 35 18.1490 -126.658 2 32 6 293
1975183N11259 1975 51 EP MM CARLOTTA 1975-07-09 21:00:00 TS 18.3014 -126.941 main 1606 1606 P________PP___ EP031975 18.3074 -126.935 TS 32 -1 18.3074 -126.935 TC 32 18.2774 -126.967 2 31 7 288
1975183N11259 1975 51 EP MM CARLOTTA 1975-07-10 00:00:00 TS 18.4000 -127.300 30 hurdat_epa main 1629 1629 O________OO___ hurdat_epa EP031975 18.4000 -127.300 TD 30 -1 18.4000 -127.300 TC 30 18.4000 -127.300 1 30 7 286
1975183N11259 1975 51 EP MM CARLOTTA 1975-07-10 03:00:00 TS 18.5030 -127.686 main 1654 1654 P________PP___ EP031975 18.4999 -127.685 TD 30 -1 18.4999 -127.685 TC 30 18.5152 -127.688 1 28 8 285
1975183N11259 1975 51 EP MM CARLOTTA 1975-07-10 06:00:00 TS 18.6045 -128.101 30 hurdat_epa main 1679 1679 O________OP___ hurdat_epa EP031975 18.6000 -128.100 TD 30 -1 18.6000 -128.100 TC 30 18.6223 -128.105 1 27 8 284
1975183N11259 1975 51 EP MM CARLOTTA 1975-07-10 09:00:00 TS 18.7096 -128.543 main 1704 1704 P________PP___ EP031975 18.7074 -128.542 TD 27 -1 18.7074 -128.542 TC 27 18.7182 -128.544 1 26 9 283
1975183N11259 1975 51 EP MM CARLOTTA 1975-07-10 12:00:00 TS 18.8000 -129.000 25 hurdat_epa main 1739 1739 O________OO___ hurdat_epa EP031975 18.8000 -129.000 TD 25 -1 18.8000 -129.000 TC 25 18.8000 -129.000 1 25 9 280
1975183N11259 1975 51 EP MM CARLOTTA 1975-07-10 15:00:00 TS 18.8590 -129.447 main 1766 1766 P________PP___ EP031975 18.8573 -129.443 TD 25 -1 18.8573 -129.443 TC 25 18.8658 -129.466 1 25 9 277
1975183N11259 1975 51 EP MM CARLOTTA 1975-07-10 18:00:00 TS 18.9037 -129.908 25 hurdat_epa main 1808 1808 O________OP___ hurdat_epa EP031975 18.9000 -129.900 TD 25 -1 18.9000 -129.900 TC 25 18.9184 -129.940 1 25 9 276
1975183N11259 1975 51 EP MM CARLOTTA 1975-07-10 21:00:00 TS 18.9506 -130.396 main 1845 1845 P________PP___ EP031975 18.9478 -130.390 TD 25 -1 18.9478 -130.390 TC 25 18.9618 -130.419 1 25 9 276
1975183N11259 1975 51 EP MM CARLOTTA 1975-07-11 00:00:00 TS 19.0000 -130.900 25 hurdat_epa main 1888 O________OO___ hurdat_epa EP031975 19.0000 -130.900 TD 25 -1 19.0000 -130.900 TC 25 19.0000 -130.900 1 25 10 276

About IBTrACS Database

This database is a web-friendly format of International Best Track Archive for Climate Stewardship (IBTrACS), a global best track data archive curated by NOAA dating back to 1842.

Updated: 2021-11-26